Time;durP1;ratioP1;P1;durP2;ratioP2;P2;SDS_P1;SDS_P2;PMS_P1;PMS_P2;Temp;Humidity;BMP_temperature;BMP_pressure;BME280_temperature;BME280_humidity;BME280_pressure;Samples;Min_cycle;Max_cycle;Signal;HPM_P1;HPM_P2
2022/10/06 00:01:02;;;;;;;0.00;0.00;;;12.90;99.90;;;;;;6219493;23;20063;-93
2022/10/06 00:03:29;;;;;;;0.00;0.00;;;12.90;99.90;;;;;;6218585;23;20313;-93
2022/10/06 00:06:10;;;;;;;;;;;;;;;;;;;;;
2022/10/06 00:08:38;;;;;;;0.05;0.05;;;13.10;99.90;;;;;;6221909;23;20043;-91
2022/10/06 00:11:06;;;;;;;0.00;0.00;;;12.80;99.90;;;;;;6244872;23;20460;-94
2022/10/06 00:13:32;;;;;;;0.10;0.10;;;12.80;99.90;;;;;;6193017;23;20336;-93
2022/10/06 00:15:59;;;;;;;0.05;0.05;;;12.70;99.90;;;;;;6219936;23;20055;-94
2022/10/06 00:18:25;;;;;;;0.00;0.00;;;12.70;99.90;;;;;;6219762;23;20016;-92
2022/10/06 00:21:00;;;;;;;0.00;0.00;;;12.60;99.90;;;;;;6194474;23;20016;-86
2022/10/06 00:23:27;;;;;;;0.00;0.00;;;12.70;99.90;;;;;;6219291;23;20020;-87
2022/10/06 00:25:53;;;;;;;0.00;0.00;;;13.80;99.90;;;;;;6194800;23;20317;-86
2022/10/06 00:28:19;;;;;;;0.00;0.00;;;12.70;99.90;;;;;;6219253;23;20073;-86
2022/10/06 00:30:46;;;;;;;0.00;0.00;;;12.60;99.90;;;;;;6193196;23;20034;-86
2022/10/06 00:33:14;;;;;;;0.00;0.00;;;12.60;99.90;;;;;;6246003;23;20077;-86
2022/10/06 00:35:42;;;;;;;0.00;0.00;;;12.60;99.90;;;;;;6168777;23;20016;-86
2022/10/06 00:38:13;;;;;;;0.00;0.00;;;12.60;99.90;;;;;;6193676;23;20020;-86
2022/10/06 00:40:48;;;;;;;0.00;0.00;;;12.60;99.90;;;;;;6219360;23;20016;-86
2022/10/06 00:43:46;;;;;;;0.10;0.00;;;12.50;99.90;;;;;;6194295;23;20016;-86
2022/10/06 00:46:28;;;;;;;0.00;0.00;;;12.60;99.90;;;;;;6269893;22;20079;-86
2022/10/06 00:49:23;;;;;;;0.00;0.00;;;12.50;99.90;;;;;;6194166;23;20012;-87
2022/10/06 00:51:57;;;;;;;0.00;0.00;;;12.50;99.90;;;;;;6243270;23;20018;-87
2022/10/06 00:54:24;;;;;;;0.00;0.00;;;12.50;99.90;;;;;;6244550;23;20094;-87
2022/10/06 00:56:49;;;;;;;;;;;12.50;99.90;;;;;;6218655;23;20012;-87
2022/10/06 00:59:17;;;;;;;0.00;0.00;;;12.50;99.90;;;;;;6193714;23;19915;-87
2022/10/06 01:02:03;;;;;;;0.00;0.00;;;12.40;99.90;;;;;;6193262;23;20028;-87
2022/10/06 01:04:35;;;;;;;0.00;0.00;;;12.40;99.90;;;;;;6217833;23;20019;-87
2022/10/06 01:07:01;;;;;;;0.08;0.08;;;12.40;99.90;;;;;;6218749;23;20016;-87
2022/10/06 01:09:29;;;;;;;0.00;0.00;;;12.40;99.90;;;;;;6193413;23;20141;-87
2022/10/06 01:11:58;;;;;;;0.00;0.00;;;12.40;99.90;;;;;;6194022;23;20440;-87
2022/10/06 01:14:25;;;;;;;0.00;0.00;;;12.40;99.90;;;;;;6269461;22;20012;-87
2022/10/06 01:16:59;;;;;;;0.00;0.00;;;12.40;99.90;;;;;;6193530;23;20433;-87
2022/10/06 01:19:49;;;;;;;0.00;0.00;;;12.40;99.90;;;;;;6269944;22;20051;-87
2022/10/06 01:22:17;;;;;;;0.00;0.00;;;12.40;99.90;;;;;;6193991;23;20055;-87
2022/10/06 01:24:45;;;;;;;0.00;0.00;;;12.30;99.90;;;;;;6193224;23;20091;-87
2022/10/06 01:27:13;;;;;;;0.00;0.00;;;12.30;99.90;;;;;;6193757;23;20448;-87
2022/10/06 01:29:39;;;;;;;0.00;0.00;;;12.30;99.90;;;;;;6193311;23;20067;-87
2022/10/06 01:32:05;;;;;;;0.05;0.05;;;12.30;99.90;;;;;;6269587;22;20016;-87
2022/10/06 01:34:30;;;;;;;0.00;0.00;;;12.20;99.90;;;;;;6218111;23;20174;-87
2022/10/06 01:36:56;;;;;;;0.20;0.10;;;12.20;99.90;;;;;;6192685;23;20109;-87
2022/10/06 01:39:22;;;;;;;0.10;0.10;;;12.20;99.90;;;;;;6194081;23;20019;-87
2022/10/06 01:41:47;;;;;;;0.00;0.00;;;12.20;99.90;;;;;;6218420;23;20023;-87
2022/10/06 01:44:13;;;;;;;0.00;0.00;;;12.20;99.90;;;;;;6218102;23;20346;-87
2022/10/06 01:46:39;;;;;;;0.00;0.00;;;12.10;99.90;;;;;;6218383;23;20058;-88
2022/10/06 01:49:05;;;;;;;0.13;0.10;;;12.10;99.90;;;;;;6168430;23;20099;-88
2022/10/06 01:51:30;;;;;;;0.00;0.00;;;12.00;99.90;;;;;;6168601;23;20380;-87
2022/10/06 01:53:56;;;;;;;0.10;0.10;;;12.10;99.90;;;;;;6243667;23;20016;-87
2022/10/06 01:56:22;;;;;;;0.10;0.00;;;12.00;99.90;;;;;;6219107;23;20051;-87
2022/10/06 01:58:48;;;;;;;0.30;0.30;;;12.00;99.90;;;;;;6268333;22;20016;-87
2022/10/06 02:01:14;;;;;;;0.00;0.00;;;12.00;99.90;;;;;;6218029;23;20039;-88
2022/10/06 02:03:40;;;;;;;0.00;0.00;;;12.00;99.90;;;;;;6193444;23;20046;-88
2022/10/06 02:06:07;;;;;;;0.00;0.00;;;12.00;99.90;;;;;;6269495;22;20095;-87
2022/10/06 02:08:33;;;;;;;0.03;0.03;;;11.90;99.90;;;;;;6193890;23;20321;-87
2022/10/06 02:11:04;;;;;;;0.35;0.10;;;11.90;99.90;;;;;;6193457;23;20449;-87
2022/10/06 02:13:30;;;;;;;0.43;0.05;;;11.90;99.90;;;;;;6269395;22;20023;-86
2022/10/06 02:15:57;;;;;;;0.00;0.00;;;11.80;99.90;;;;;;6168358;23;20022;-87
2022/10/06 02:18:22;;;;;;;0.00;0.00;;;11.80;99.90;;;;;;6269465;22;20016;-86
2022/10/06 02:20:48;;;;;;;0.00;0.00;;;11.80;99.90;;;;;;6268900;22;20020;-86
2022/10/06 02:23:14;;;;;;;0.00;0.00;;;11.70;99.90;;;;;;6243681;23;20024;-87
2022/10/06 02:25:40;;;;;;;0.00;0.00;;;11.70;99.90;;;;;;6169204;23;20444;-87
2022/10/06 02:28:05;;;;;;;0.00;0.00;;;11.60;99.90;;;;;;6244987;23;20016;-87
2022/10/06 02:30:31;;;;;;;0.10;0.10;;;11.60;99.90;;;;;;6218468;23;20016;-87
2022/10/06 02:32:57;;;;;;;0.00;0.00;;;11.60;99.90;;;;;;6217405;23;20078;-87
2022/10/06 02:35:23;;;;;;;0.00;0.00;;;11.60;99.90;;;;;;6168210;23;20099;-87
2022/10/06 02:37:49;;;;;;;0.00;0.00;;;11.60;99.90;;;;;;6192701;23;20039;-87
2022/10/06 02:40:15;;;;;;;0.03;0.03;;;11.50;99.90;;;;;;6218578;23;20016;-86
2022/10/06 02:42:41;;;;;;;0.20;0.00;;;11.50;99.90;;;;;;6193350;23;20122;-87
2022/10/06 02:45:07;;;;;;;0.00;0.00;;;11.50;99.90;;;;;;6268590;22;20048;-87
2022/10/06 02:47:34;;;;;;;0.75;0.10;;;11.50;99.90;;;;;;6243488;23;20524;-86
2022/10/06 02:50:02;;;;;;;0.00;0.00;;;11.50;99.90;;;;;;6192605;23;20055;-87
2022/10/06 02:52:33;;;;;;;0.00;0.00;;;11.40;99.90;;;;;;6218444;23;20020;-87
2022/10/06 02:54:59;;;;;;;0.00;0.00;;;11.50;99.90;;;;;;6269296;22;20016;-87
2022/10/06 02:57:25;;;;;;;0.00;0.00;;;11.40;99.90;;;;;;6219617;23;20016;-86
2022/10/06 02:59:51;;;;;;;0.00;0.00;;;11.30;99.90;;;;;;6269211;22;20031;-87
2022/10/06 03:02:16;;;;;;;0.00;0.00;;;11.40;99.90;;;;;;6192966;23;20020;-87
2022/10/06 03:04:42;;;;;;;0.00;0.00;;;11.30;99.90;;;;;;6192923;23;20012;-87
2022/10/06 03:07:08;;;;;;;0.10;0.10;;;11.30;99.90;;;;;;6217169;23;20020;-87
2022/10/06 03:09:33;;;;;;;0.07;0.07;;;11.30;99.90;;;;;;6217964;23;20019;-86
2022/10/06 03:11:59;;;;;;;0.03;0.03;;;11.10;99.90;;;;;;6242618;23;20020;-87
2022/10/06 03:14:25;;;;;;;0.00;0.00;;;11.20;99.90;;;;;;6192783;23;20020;-87
2022/10/06 03:16:53;;;;;;;0.20;0.20;;;11.20;99.90;;;;;;6167765;23;20039;-87
2022/10/06 03:19:19;;;;;;;0.00;0.00;;;11.20;99.90;;;;;;6243600;22;20047;-88
2022/10/06 03:21:45;;;;;;;0.00;0.00;;;11.20;99.90;;;;;;6242808;23;20319;-87
2022/10/06 03:24:11;;;;;;;0.00;0.00;;;11.20;99.90;;;;;;6267953;22;20082;-87
2022/10/06 03:26:42;;;;;;;0.00;0.00;;;11.20;99.90;;;;;;6243148;23;20028;-87
2022/10/06 03:29:08;;;;;;;0.00;0.00;;;11.20;99.90;;;;;;6217485;23;20020;-87
2022/10/06 03:31:34;;;;;;;0.00;0.00;;;11.10;99.90;;;;;;6167911;23;20027;-87
2022/10/06 03:34:00;;;;;;;0.00;0.00;;;11.10;99.90;;;;;;6268110;22;20008;-87
2022/10/06 03:36:28;;;;;;;0.10;0.10;;;11.10;99.90;;;;;;6244188;23;20058;-87
2022/10/06 03:38:54;;;;;;;0.10;0.10;;;11.00;99.90;;;;;;6268066;22;20020;-87
2022/10/06 03:41:21;;;;;;;0.10;0.10;;;11.00;99.90;;;;;;6267879;22;20022;-87
2022/10/06 03:43:49;;;;;;;0.03;0.03;;;11.00;99.90;;;;;;6192454;23;20255;-87
2022/10/06 03:46:18;;;;;;;0.90;0.30;;;11.00;99.90;;;;;;6267835;22;20012;-87
2022/10/06 03:48:44;;;;;;;0.00;0.00;;;11.00;99.90;;;;;;6192842;23;20020;-86
2022/10/06 03:51:14;;;;;;;0.00;0.00;;;10.90;99.90;;;;;;6191297;23;20023;-87
2022/10/06 03:53:43;;;;;;;0.00;0.00;;;10.90;99.90;;;;;;6218204;23;20464;-87
2022/10/06 03:56:19;;;;;;;0.00;0.00;;;11.20;99.90;;;;;;6268169;22;20012;-88
2022/10/06 03:58:52;;;;;;;0.15;0.10;;;10.80;99.90;;;;;;6242527;22;20479;-87
2022/10/06 04:01:25;;;;;;;0.47;0.10;;;10.80;99.90;;;;;;6217300;23;20332;-87
2022/10/06 04:03:52;;;;;;;0.00;0.00;;;10.80;99.90;;;;;;6217729;23;20016;-87
2022/10/06 04:06:18;;;;;;;0.00;0.00;;;10.70;99.90;;;;;;6192302;23;20016;-87
2022/10/06 04:08:46;;;;;;;0.05;0.05;;;10.70;99.90;;;;;;6268012;22;20517;-87
2022/10/06 04:11:16;;;;;;;0.10;0.10;;;11.20;99.90;;;;;;6191879;23;20067;-87
2022/10/06 04:13:44;;;;;;;0.00;0.00;;;10.70;99.90;;;;;;6192828;23;20016;-87
2022/10/06 04:16:14;;;;;;;0.13;0.08;;;10.60;99.90;;;;;;6217338;23;20020;-87
2022/10/06 04:18:41;;;;;;;0.10;0.10;;;10.60;99.90;;;;;;6192877;23;20375;-87
2022/10/06 04:21:07;;;;;;;0.00;0.00;;;10.60;99.90;;;;;;6191635;23;20028;-87
2022/10/06 04:23:35;;;;;;;2.07;0.17;;;10.50;99.90;;;;;;6243079;23;20086;-87
2022/10/06 04:26:04;;;;;;;0.00;0.00;;;10.50;99.90;;;;;;6217247;23;20515;-88
2022/10/06 04:28:30;;;;;;;0.00;0.00;;;10.50;99.90;;;;;;6193266;23;20019;-86
2022/10/06 04:30:57;;;;;;;0.00;0.00;;;10.50;99.90;;;;;;6192224;23;20336;-86
2022/10/06 04:33:23;;;;;;;0.00;0.00;;;10.50;99.90;;;;;;6167174;23;20595;-87
2022/10/06 04:36:11;;;;;;;0.03;0.03;;;10.50;99.90;;;;;;6142731;23;20070;-87
2022/10/06 04:38:37;;;;;;;0.00;0.00;;;10.40;99.90;;;;;;6217524;23;20023;-86
2022/10/06 04:41:12;;;;;;;0.00;0.00;;;10.40;99.90;;;;;;6216417;23;20013;-88
2022/10/06 04:43:38;;;;;;;0.00;0.00;;;10.50;99.90;;;;;;6192289;23;20090;-87
2022/10/06 04:46:04;;;;;;;0.10;0.00;;;11.40;99.90;;;;;;6194067;23;20373;-87
2022/10/06 04:48:30;;;;;;;0.00;0.00;;;10.50;99.90;;;;;;6219242;23;20016;-87
2022/10/06 04:51:08;;;;;;;0.00;0.00;;;10.50;99.90;;;;;;6169332;23;20052;-87
2022/10/06 04:53:34;;;;;;;0.00;0.00;;;10.50;99.90;;;;;;6270287;22;20027;-86
2022/10/06 04:56:18;;;;;;;0.10;0.10;;;10.50;99.90;;;;;;6270373;22;20012;-87
2022/10/06 04:58:46;;;;;;;0.10;0.10;;;10.50;99.90;;;;;;6244472;22;20020;-86
2022/10/06 05:01:24;;;;;;;0.00;0.00;;;10.50;99.90;;;;;;6218409;23;20345;-87
2022/10/06 05:03:50;;;;;;;;;;;10.50;99.90;;;;;;6270669;22;20020;-87
2022/10/06 05:06:22;;;;;;;0.00;0.00;;;10.50;99.90;;;;;;6218609;23;19916;-87
2022/10/06 05:08:50;;;;;;;0.00;0.00;;;10.40;99.90;;;;;;6270137;22;20092;-87
2022/10/06 05:11:17;;;;;;;0.00;0.00;;;10.50;99.90;;;;;;6193537;23;20024;-86
2022/10/06 05:13:43;;;;;;;0.57;0.08;;;10.40;99.90;;;;;;6269384;22;20017;-87
2022/10/06 05:16:12;;;;;;;0.32;0.20;;;10.50;99.90;;;;;;6193794;23;20023;-87
2022/10/06 05:18:38;;;;;;;0.00;0.00;;;10.40;99.90;;;;;;6193458;23;20016;-87
2022/10/06 05:21:14;;;;;;;0.10;0.10;;;10.40;99.90;;;;;;6194050;23;20016;-86
2022/10/06 05:23:40;;;;;;;0.03;0.03;;;10.40;99.90;;;;;;6219282;23;20360;-87
2022/10/06 05:26:07;;;;;;;0.00;0.00;;;10.40;99.90;;;;;;6193250;23;20081;-86
2022/10/06 05:28:33;;;;;;;0.00;0.00;;;10.40;99.90;;;;;;6168625;23;20024;-87
2022/10/06 05:31:10;;;;;;;0.00;0.00;;;10.40;99.90;;;;;;6219040;23;20012;-87
2022/10/06 05:33:36;;;;;;;0.00;0.00;;;10.40;99.90;;;;;;6193621;23;20069;-86
2022/10/06 05:36:14;;;;;;;0.13;0.10;;;10.30;99.90;;;;;;6193772;23;20058;-87
2022/10/06 05:38:40;;;;;;;0.00;0.00;;;10.30;99.90;;;;;;6219189;23;20016;-87
2022/10/06 05:41:12;;;;;;;0.00;0.00;;;10.30;99.90;;;;;;6219553;23;20101;-86
2022/10/06 05:43:39;;;;;;;0.10;0.10;;;10.30;99.90;;;;;;6193413;23;20031;-88
2022/10/06 05:46:05;;;;;;;;;;;10.30;99.90;;;;;;6218764;23;20016;-87
2022/10/06 05:48:31;;;;;;;0.00;0.00;;;10.30;99.90;;;;;;6192762;23;19926;-87
2022/10/06 05:51:05;;;;;;;0.10;0.00;;;10.30;99.90;;;;;;6219246;23;20099;-86
2022/10/06 05:53:34;;;;;;;0.22;0.08;;;10.30;99.90;;;;;;6269104;22;20016;-86
2022/10/06 05:56:17;;;;;;;0.10;0.03;;;10.30;99.90;;;;;;6218617;23;20091;-86
2022/10/06 05:58:45;;;;;;;0.00;0.00;;;10.30;99.90;;;;;;6217671;23;20023;-86
2022/10/06 06:01:17;;;;;;;0.00;0.00;;;10.30;99.90;;;;;;6269542;22;20059;-86
2022/10/06 06:03:47;;;;;;;0.00;0.00;;;10.30;99.90;;;;;;6245512;23;20047;-86
2022/10/06 06:06:23;;;;;;;0.00;0.00;;;10.30;99.90;;;;;;6269120;22;20062;-87
2022/10/06 06:09:00;;;;;;;0.00;0.00;;;10.30;99.90;;;;;;6219214;23;20384;-86
2022/10/06 06:11:30;;;;;;;0.00;0.00;;;10.30;99.90;;;;;;6270866;22;20078;-83
2022/10/06 06:14:00;;;;;;;0.03;0.00;;;10.40;99.90;;;;;;6218567;23;20016;-83
2022/10/06 06:16:27;;;;;;;0.00;0.00;;;10.30;99.90;;;;;;6268915;22;20520;-83
2022/10/06 06:18:53;;;;;;;0.63;0.00;;;10.40;99.90;;;;;;6245154;23;20012;-83
2022/10/06 06:21:20;;;;;;;0.10;0.10;;;10.40;99.90;;;;;;6218157;23;20023;-85
2022/10/06 06:23:47;;;;;;;0.00;0.00;;;10.40;99.90;;;;;;6168820;23;20027;-83
2022/10/06 06:26:24;;;;;;;0.00;0.00;;;10.50;99.90;;;;;;6218536;23;20012;-83
2022/10/06 06:28:51;;;;;;;0.05;0.00;;;10.40;99.90;;;;;;6245139;23;20020;-84
2022/10/06 06:31:21;;;;;;;0.00;0.00;;;10.50;99.90;;;;;;6218746;23;20076;-83
2022/10/06 06:33:50;;;;;;;0.05;0.00;;;10.50;99.90;;;;;;6193079;23;20027;-83
2022/10/06 06:36:21;;;;;;;0.10;0.10;;;10.50;99.90;;;;;;6244884;23;20519;-85
2022/10/06 06:38:50;;;;;;;0.17;0.10;;;10.60;99.90;;;;;;6245130;23;20111;-85
2022/10/06 06:41:17;;;;;;;0.00;0.00;;;10.60;99.90;;;;;;6244668;23;20020;-83
2022/10/06 06:43:43;;;;;;;0.22;0.00;;;10.60;99.90;;;;;;6217734;23;20027;-83
2022/10/06 06:46:08;;;;;;;0.70;0.10;;;10.80;99.90;;;;;;6244802;23;20031;-84
2022/10/06 06:48:37;;;;;;;0.30;0.10;;;11.00;99.90;;;;;;6192929;23;20016;-82
2022/10/06 06:51:03;;;;;;;0.10;0.10;;;11.50;99.90;;;;;;6168657;23;20341;-83
2022/10/06 06:53:30;;;;;;;0.93;0.00;;;11.90;99.90;;;;;;6217849;23;20020;-85
2022/10/06 06:55:56;;;;;;;;;;;12.30;99.90;;;;;;6269659;22;20016;-84
2022/10/06 06:58:22;;;;;;;0.30;0.10;;;12.60;99.90;;;;;;6244578;23;19916;-83
2022/10/06 07:00:48;;;;;;;0.00;0.00;;;12.80;99.90;;;;;;6243628;22;20459;-84
2022/10/06 07:03:18;;;;;;;0.00;0.00;;;13.10;99.90;;;;;;6218719;23;20142;-83
2022/10/06 07:05:45;;;;;;;0.00;0.00;;;13.30;99.90;;;;;;6217519;23;20103;-86
2022/10/06 07:08:15;;;;;;;0.00;0.00;;;13.40;99.90;;;;;;6268645;22;20022;-84
2022/10/06 07:10:43;;;;;;;0.15;0.15;;;13.50;99.90;;;;;;6217943;23;20012;-83
2022/10/06 07:13:14;;;;;;;0.08;0.00;;;13.40;99.90;;;;;;6193149;23;20020;-84
2022/10/06 07:26:43;;;;;;;0.10;0.10;;;13.60;99.90;;;;;;6217944;23;20083;-83
2022/10/06 07:29:09;;;;;;;0.00;0.00;;;13.70;99.90;;;;;;6244517;23;20087;-84
2022/10/06 07:31:35;;;;;;;0.00;0.00;;;13.80;99.90;;;;;;6217683;23;20082;-84
2022/10/06 07:34:06;;;;;;;0.00;0.00;;;13.80;99.90;;;;;;6268625;22;20091;-83
2022/10/06 07:36:33;;;;;;;0.10;0.00;;;13.80;99.90;;;;;;6217682;23;20467;-84
2022/10/06 07:38:58;;;;;;;0.00;0.00;;;13.80;99.90;;;;;;6218098;23;20383;-84
2022/10/06 07:41:24;;;;;;;0.00;0.00;;;14.00;99.90;;;;;;6245071;23;20016;-84
2022/10/06 07:43:52;;;;;;;0.47;0.17;;;14.00;99.90;;;;;;6217011;23;20016;-83
2022/10/06 07:46:18;;;;;;;0.00;0.00;;;14.20;99.90;;;;;;6244765;23;20239;-84
2022/10/06 07:48:47;;;;;;;0.10;0.10;;;14.30;99.90;;;;;;6217679;23;20039;-83
2022/10/06 07:51:17;;;;;;;0.10;0.00;;;14.60;99.90;;;;;;6244906;23;20019;-83
2022/10/06 07:53:49;;;;;;;0.00;0.00;;;14.90;99.90;;;;;;6217169;23;20349;-83
2022/10/06 07:56:18;;;;;;;0.10;0.10;;;15.00;99.90;;;;;;6218131;23;20384;-84
2022/10/06 07:58:44;;;;;;;0.05;0.00;;;15.30;99.90;;;;;;6242878;22;20059;-82
2022/10/06 08:01:12;;;;;;;0.00;0.00;;;15.30;99.90;;;;;;6193139;23;20024;-83
2022/10/06 08:03:39;;;;;;;0.35;0.05;;;15.40;99.90;;;;;;6243954;23;20035;-83
2022/10/06 08:06:13;;;;;;;0.03;0.03;;;15.40;99.90;;;;;;6217234;23;20020;-83
2022/10/06 08:08:40;;;;;;;0.03;0.03;;;15.30;99.90;;;;;;6244239;23;20139;-84
2022/10/06 08:11:07;;;;;;;0.00;0.00;;;15.50;99.90;;;;;;6244915;23;20020;-82
2022/10/06 08:13:38;;;;;;;0.00;0.00;;;15.60;99.90;;;;;;6217290;23;20516;-85
2022/10/06 08:16:13;;;;;;;0.00;0.00;;;15.50;99.90;;;;;;6192403;23;20020;-85
2022/10/06 08:18:39;;;;;;;0.03;0.00;;;15.50;99.90;;;;;;6192392;23;20078;-86
2022/10/06 08:21:14;;;;;;;0.00;0.00;;;15.40;99.90;;;;;;6220514;23;20028;-85
2022/10/06 08:23:42;;;;;;;0.17;0.10;;;15.30;99.90;;;;;;6220429;23;20091;-86
2022/10/06 08:26:09;;;;;;;0.00;0.00;;;15.30;99.90;;;;;;6219893;23;20031;-85
2022/10/06 08:28:36;;;;;;;0.45;0.45;;;15.20;99.90;;;;;;6271237;22;20022;-85
2022/10/06 08:31:10;;;;;;;0.00;0.00;;;15.20;99.90;;;;;;6270852;22;20016;-85
2022/10/06 08:33:41;;;;;;;0.10;0.00;;;15.10;99.90;;;;;;6246850;23;20075;-84
2022/10/06 08:36:10;;;;;;;0.20;0.03;;;15.10;99.90;;;;;;6247083;23;20394;-85
2022/10/06 08:38:37;;;;;;;0.00;0.00;;;15.00;99.90;;;;;;6246982;23;20067;-84
2022/10/06 08:41:16;;;;;;;0.00;0.00;;;15.00;99.90;;;;;;6219963;23;20047;-84
2022/10/06 08:43:43;;;;;;;0.10;0.10;;;14.90;99.90;;;;;;6246132;23;20441;-85
2022/10/06 08:46:11;;;;;;;0.00;0.00;;;14.90;99.90;;;;;;6170225;23;20348;-85
2022/10/06 08:48:37;;;;;;;0.30;0.00;;;14.90;99.90;;;;;;6271262;22;20086;-86
2022/10/06 08:51:17;;;;;;;0.82;0.10;;;14.90;99.90;;;;;;6219659;23;20016;-84
2022/10/06 08:54:09;;;;;;;0.98;0.00;;;14.80;99.90;;;;;;6219111;23;20081;-85
2022/10/06 08:56:50;;;;;;;0.47;0.20;;;14.90;99.90;;;;;;6219871;23;20016;-84
2022/10/06 08:59:20;;;;;;;0.03;0.03;;;14.90;99.90;;;;;;6220205;23;20027;-84
2022/10/06 09:01:48;;;;;;;0.30;0.30;;;15.00;99.90;;;;;;6247792;23;20019;-84
2022/10/06 09:04:27;;;;;;;1.65;0.30;;;15.10;99.90;;;;;;6271290;22;20020;-84
2022/10/06 09:07:15;;;;;;;0.08;0.08;;;15.20;99.90;;;;;;6219178;23;20336;-84
2022/10/06 09:10:22;;;;;;;1.45;0.13;;;15.20;99.90;;;;;;6246561;23;20106;-87
2022/10/06 09:12:59;;;;;;;1.10;0.30;;;15.20;99.90;;;;;;6269983;22;20024;-87
2022/10/06 09:15:37;;;;;;;;;;;15.20;99.90;;;;;;6246978;23;20099;-87
2022/10/06 09:18:09;;;;;;;;;;;15.30;99.90;;;;;;6194294;23;19916;-87
2022/10/06 09:20:58;;;;;;;0.10;0.00;;;15.40;99.90;;;;;;6194495;23;19919;-89
2022/10/06 09:23:50;;;;;;;1.17;0.17;;;15.40;99.90;;;;;;6219053;23;20044;-88
2022/10/06 09:26:23;;;;;;;0.13;0.13;;;15.40;99.90;;;;;;6228652;23;20103;-88
2022/10/06 09:28:50;;;;;;;0.00;0.00;;;15.40;99.90;;;;;;6192333;23;20023;-87
2022/10/06 09:31:28;;;;;;;0.10;0.10;;;15.40;99.90;;;;;;6220296;23;20020;-85
2022/10/06 09:34:26;;;;;;;0.22;0.20;;;15.40;99.90;;;;;;6251130;23;20052;-86
2022/10/06 09:37:01;;;;;;;0.50;0.30;;;15.50;99.90;;;;;;6210177;23;20380;-87
2022/10/06 09:39:40;;;;;;;0.15;0.10;;;15.50;99.90;;;;;;6219254;23;20066;-87
2022/10/06 09:42:09;;;;;;;0.03;0.00;;;15.60;99.90;;;;;;6193897;23;20051;-88
2022/10/06 09:44:52;;;;;;;0.13;0.13;;;15.60;99.90;;;;;;6195612;23;20020;-88
2022/10/06 09:47:38;;;;;;;0.00;0.00;;;15.60;99.90;;;;;;6246345;23;20023;-87
2022/10/06 09:50:16;;;;;;;0.35;0.20;;;15.80;99.90;;;;;;6219297;23;20349;-88
2022/10/06 09:53:07;;;;;;;0.03;0.03;;;15.80;99.90;;;;;;6194276;23;20453;-87
2022/10/06 09:55:36;;;;;;;0.35;0.35;;;15.90;99.90;;;;;;6193460;23;20016;-87
2022/10/06 09:58:14;;;;;;;0.30;0.00;;;16.50;99.90;;;;;;6190895;23;20460;-86
2022/10/06 10:01:02;;;;;;;1.00;0.10;;;15.80;99.90;;;;;;6194200;23;20099;-87
2022/10/06 10:03:49;;;;;;;0.00;0.00;;;15.70;99.90;;;;;;6245709;23;20024;-85
2022/10/06 10:06:26;;;;;;;0.20;0.05;;;15.80;99.90;;;;;;6217798;23;20016;-87
2022/10/06 10:09:21;;;;;;;0.15;0.15;;;15.90;99.90;;;;;;6245718;23;20038;-86
2022/10/06 10:12:24;;;;;;;0.10;0.10;;;17.10;99.90;;;;;;6194127;23;20012;-87
2022/10/06 10:15:33;;;;;;;0.10;0.10;;;16.10;99.90;;;;;;6219285;23;20012;-87
2022/10/06 10:18:12;;;;;;;0.05;0.05;;;16.20;99.90;;;;;;6154874;23;20020;-87
2022/10/06 10:21:04;;;;;;;0.10;0.10;;;16.30;99.90;;;;;;6194287;23;20508;-86
2022/10/06 10:23:38;;;;;;;0.03;0.03;;;16.40;99.90;;;;;;6219277;23;20016;-86
2022/10/06 10:26:12;;;;;;;0.00;0.00;;;16.30;99.90;;;;;;6218139;23;20070;-86
2022/10/06 10:29:09;;;;;;;0.00;0.00;;;16.30;99.90;;;;;;6245657;23;20020;-86
2022/10/06 10:31:36;;;;;;;0.10;0.10;;;16.20;99.90;;;;;;6115086;23;20016;-85
2022/10/06 10:34:46;;;;;;;0.00;0.00;;;16.10;99.90;;;;;;6218443;23;20787;-83
2022/10/06 10:37:34;;;;;;;0.00;0.00;;;16.20;99.90;;;;;;6136654;23;20447;-84
2022/10/06 10:40:34;;;;;;;0.08;0.08;;;16.30;99.90;;;;;;6218210;23;20058;-85
2022/10/06 10:43:28;;;;;;;0.00;0.00;;;16.40;99.90;;;;;;6242387;23;20024;-87
2022/10/06 10:46:07;;;;;;;0.25;0.17;;;16.40;99.90;;;;;;6218746;23;20064;-86
2022/10/06 10:48:41;;;;;;;0.00;0.00;;;16.40;99.90;;;;;;6218611;23;20082;-83
2022/10/06 10:51:15;;;;;;;0.00;0.00;;;16.40;99.90;;;;;;6218369;23;20019;-85
2022/10/06 10:53:55;;;;;;;0.63;0.35;;;16.20;99.90;;;;;;6218374;23;20058;-86
2022/10/06 10:56:23;;;;;;;0.03;0.03;;;16.10;99.90;;;;;;6244571;23;20091;-87
2022/10/06 10:58:55;;;;;;;0.00;0.00;;;16.00;99.90;;;;;;6193695;23;20449;-86
2022/10/06 11:01:24;;;;;;;0.00;0.00;;;16.10;99.90;;;;;;6269212;22;20046;-86
2022/10/06 11:03:55;;;;;;;0.20;0.15;;;16.30;99.90;;;;;;6193725;23;20386;-86
2022/10/06 11:06:53;;;;;;;0.00;0.00;;;16.60;99.90;;;;;;6219777;23;20016;-86
2022/10/06 11:09:32;;;;;;;0.00;0.00;;;16.90;99.90;;;;;;6193407;23;20016;-86
2022/10/06 11:12:16;;;;;;;0.00;0.00;;;17.10;99.90;;;;;;6219057;23;20015;-87
2022/10/06 11:14:44;;;;;;;0.00;0.00;;;17.40;99.90;;;;;;6219185;23;20340;-87
2022/10/06 11:17:22;;;;;;;0.00;0.00;;;17.50;99.90;;;;;;6193080;23;20024;-87
2022/10/06 11:20:00;;;;;;;0.10;0.10;;;17.50;99.90;;;;;;6218922;23;20020;-87
2022/10/06 11:23:08;;;;;;;0.17;0.00;;;17.60;99.90;;;;;;6245259;23;20023;-87
2022/10/06 11:25:49;;;;;;;0.20;0.10;;;17.60;99.90;;;;;;6217754;23;20023;-87
2022/10/06 11:28:30;;;;;;;0.00;0.00;;;17.60;99.90;;;;;;6193178;23;20095;-86
2022/10/06 11:31:06;;;;;;;0.20;0.20;;;17.80;99.90;;;;;;6245483;23;20020;-87
2022/10/06 11:33:39;;;;;;;0.00;0.00;;;17.90;99.90;;;;;;6193975;23;20022;-86
2022/10/06 11:36:15;;;;;;;0.00;0.00;;;17.90;99.90;;;;;;6218672;23;20012;-86
2022/10/06 11:38:48;;;;;;;0.10;0.10;;;18.00;99.90;;;;;;6218774;23;20016;-86
2022/10/06 11:41:28;;;;;;;0.82;0.17;;;18.00;99.90;;;;;;6218170;23;20021;-86
2022/10/06 11:44:18;;;;;;;0.00;0.00;;;18.10;99.90;;;;;;6245461;23;20441;-87
2022/10/06 11:47:05;;;;;;;0.00;0.00;;;18.90;99.90;;;;;;6218982;23;20042;-87
2022/10/06 11:49:31;;;;;;;0.00;0.00;;;18.10;99.90;;;;;;6269073;22;20020;-87
2022/10/06 11:52:06;;;;;;;0.00;0.00;;;18.00;99.90;;;;;;6218609;23;20012;-87
2022/10/06 11:54:44;;;;;;;0.20;0.20;;;18.00;99.90;;;;;;6219666;23;20023;-87
2022/10/06 11:57:22;;;;;;;0.00;0.00;;;18.10;99.90;;;;;;6194965;23;20016;-86
2022/10/06 11:59:51;;;;;;;0.22;0.00;;;18.20;99.90;;;;;;6195511;23;20017;-86
2022/10/06 12:02:29;;;;;;;0.00;0.00;;;18.30;99.90;;;;;;6220063;23;20461;-87
2022/10/06 12:05:13;;;;;;;0.28;0.17;;;18.40;99.90;;;;;;6195488;23;20027;-87
2022/10/06 12:07:54;;;;;;;0.00;0.00;;;18.50;99.90;;;;;;6220440;23;20020;-85
2022/10/06 12:10:28;;;;;;;0.00;0.00;;;18.50;99.90;;;;;;6220116;23;20016;-85
2022/10/06 12:13:28;;;;;;;0.00;0.00;;;18.60;99.90;;;;;;6195445;23;20027;-85
2022/10/06 12:16:00;;;;;;;0.00;0.00;;;18.80;99.90;;;;;;6220904;23;20430;-85
2022/10/06 12:18:41;;;;;;;0.00;0.00;;;18.90;99.90;;;;;;6246887;23;20012;-85
2022/10/06 12:21:44;;;;;;;0.00;0.00;;;19.00;99.90;;;;;;6220195;23;20020;-85
2022/10/06 12:24:22;;;;;;;0.00;0.00;;;19.20;99.90;;;;;;6220688;23;20345;-85
2022/10/06 12:26:57;;;;;;;0.00;0.00;;;19.20;99.90;;;;;;6195219;23;20330;-85
2022/10/06 12:29:44;;;;;;;0.00;0.00;;;19.30;99.90;;;;;;6194931;23;20020;-85
2022/10/06 12:32:32;;;;;;;0.00;0.00;;;19.10;99.90;;;;;;6195250;23;20377;-86
2022/10/06 12:35:07;;;;;;;;;;;19.10;99.90;;;;;;6220504;23;20020;-85
2022/10/06 12:37:51;;;;;;;0.90;0.00;;;19.10;99.90;;;;;;6194968;23;20011;-85
2022/10/06 12:40:42;;;;;;;0.00;0.00;;;19.20;99.90;;;;;;6246691;23;20016;-85
2022/10/06 12:43:17;;;;;;;0.00;0.00;;;19.20;99.90;;;;;;6220303;23;20028;-85
2022/10/06 12:45:45;;;;;;;0.00;0.00;;;19.30;99.90;;;;;;6219936;23;20051;-85
2022/10/06 12:48:28;;;;;;;0.15;0.10;;;19.50;99.90;;;;;;6220461;23;20014;-85
2022/10/06 12:51:12;;;;;;;0.00;0.00;;;19.60;99.90;;;;;;6195813;23;20018;-83
2022/10/06 12:54:14;;;;;;;0.00;0.00;;;19.50;99.90;;;;;;6223770;23;20023;-86
2022/10/06 12:56:41;;;;;;;0.00;0.00;;;19.40;99.90;;;;;;6194711;23;20020;-85
2022/10/06 12:59:20;;;;;;;0.00;0.00;;;19.30;99.90;;;;;;6270438;22;20031;-86
2022/10/06 13:01:53;;;;;;;0.40;0.20;;;19.20;99.90;;;;;;6220879;23;20110;-86
2022/10/06 13:04:40;;;;;;;0.00;0.00;;;19.20;99.90;;;;;;6220158;23;20020;-86
2022/10/06 13:07:14;;;;;;;0.08;0.03;;;19.10;99.90;;;;;;6195302;23;20113;-86
2022/10/06 13:09:40;;;;;;;0.00;0.00;;;19.20;99.90;;;;;;6219614;23;20023;-86
2022/10/06 13:12:22;;;;;;;0.00;0.00;;;19.30;99.90;;;;;;6170356;23;20024;-87
2022/10/06 13:15:22;;;;;;;0.00;0.00;;;19.30;99.90;;;;;;6194852;23;20103;-86
2022/10/06 13:17:58;;;;;;;0.00;0.00;;;19.30;99.90;;;;;;6246923;23;20095;-86
2022/10/06 13:20:31;;;;;;;0.22;0.22;;;19.20;99.90;;;;;;6219607;23;20016;-86
2022/10/06 13:23:32;;;;;;;0.75;0.75;;;19.30;99.90;;;;;;6220189;23;20102;-86
2022/10/06 13:26:04;;;;;;;0.00;0.00;;;19.30;99.90;;;;;;6246664;23;20012;-86
2022/10/06 13:28:44;;;;;;;0.00;0.00;;;19.40;99.90;;;;;;6192656;23;20487;-86
2022/10/06 13:31:20;;;;;;;0.10;0.08;;;19.40;99.90;;;;;;6219394;23;20070;-83